Portada
METAR-TAF:

METAR-TAF

Aeroports :

Coonamble, Austràlia

latitud: 30-59-00S, longitud: 148-22-30E, altitud: 184 m

Observació

L'informe es va fer fa 30 minuts, a les 16:00 UTC
Vent 5 kt del Est
Temperatura 19°C
Humitat 68%
Pressió 1022 hPa

METAR: YCNM 191600Z AUTO 10005KT //// // ////// 19/13 Q1022

Hora: 02:30 (16:30 UTC)


TAF: manca

Observacions i pronòstics meteorològics de més de 4000 aeroports (METAR i TAF).

Les estacions disponibles són els punts grocs i vermells al mapa.

Posi el ratolí al punt desitjat per veure el nom de l'estació.

Feu clic per veure les observacions i els pronòstics meteorològics.

Per canviar el mapa: feu clic els botons verds amb una creu de color negre per apropar; al botó verd amb un guió per allunyar la imatge; o en les fletxes verdes per a mapes adjacents.


METAR-TAF: